sensor_id;sensor_type;location;lat;lon;timestamp;temperature;humidity
21906;DHT22;11117;48.644;9.006;2022-12-05T00:03:52;3.10;99.90
21906;DHT22;11117;48.644;9.006;2022-12-05T00:06:19;3.30;99.90
21906;DHT22;11117;48.644;9.006;2022-12-05T00:08:48;3.30;99.90
21906;DHT22;11117;48.644;9.006;2022-12-05T00:11:16;3.30;99.90
21906;DHT22;11117;48.644;9.006;2022-12-05T00:13:42;3.30;99.90
21906;DHT22;11117;48.644;9.006;2022-12-05T00:16:09;3.30;99.90
21906;DHT22;11117;48.644;9.006;2022-12-05T00:18:35;3.20;99.90
21906;DHT22;11117;48.644;9.006;2022-12-05T00:21:00;3.00;99.90
21906;DHT22;11117;48.644;9.006;2022-12-05T00:23:26;3.00;99.90
21906;DHT22;11117;48.644;9.006;2022-12-05T00:25:52;2.70;99.90
21906;DHT22;11117;48.644;9.006;2022-12-05T00:28:17;2.80;99.90
21906;DHT22;11117;48.644;9.006;2022-12-05T00:30:43;3.00;99.90
21906;DHT22;11117;48.644;9.006;2022-12-05T00:33:08;2.90;99.90
21906;DHT22;11117;48.644;9.006;2022-12-05T00:35:34;2.90;99.90
21906;DHT22;11117;48.644;9.006;2022-12-05T00:38:01;2.90;99.90
21906;DHT22;11117;48.644;9.006;2022-12-05T00:40:26;2.80;99.90
21906;DHT22;11117;48.644;9.006;2022-12-05T00:42:52;2.90;99.90
21906;DHT22;11117;48.644;9.006;2022-12-05T00:45:17;2.80;99.90
21906;DHT22;11117;48.644;9.006;2022-12-05T00:47:43;2.90;99.90
21906;DHT22;11117;48.644;9.006;2022-12-05T00:50:08;2.90;99.90
21906;DHT22;11117;48.644;9.006;2022-12-05T00:52:35;2.80;99.90
21906;DHT22;11117;48.644;9.006;2022-12-05T00:55:02;2.90;99.90
21906;DHT22;11117;48.644;9.006;2022-12-05T00:57:27;2.80;99.90
21906;DHT22;11117;48.644;9.006;2022-12-05T00:59:53;2.70;99.90
21906;DHT22;11117;48.644;9.006;2022-12-05T01:02:19;2.60;99.90
21906;DHT22;11117;48.644;9.006;2022-12-05T01:04:44;2.70;99.90
21906;DHT22;11117;48.644;9.006;2022-12-05T01:07:10;2.50;99.90
21906;DHT22;11117;48.644;9.006;2022-12-05T01:09:35;2.40;99.90
21906;DHT22;11117;48.644;9.006;2022-12-05T01:12:02;2.60;99.90
21906;DHT22;11117;48.644;9.006;2022-12-05T01:14:28;2.80;99.90
21906;DHT22;11117;48.644;9.006;2022-12-05T01:16:54;2.90;99.90
21906;DHT22;11117;48.644;9.006;2022-12-05T01:19:23;3.00;99.90
21906;DHT22;11117;48.644;9.006;2022-12-05T01:21:50;3.10;99.90
21906;DHT22;11117;48.644;9.006;2022-12-05T01:24:18;3.20;99.90
21906;DHT22;11117;48.644;9.006;2022-12-05T01:26:45;3.30;99.90
21906;DHT22;11117;48.644;9.006;2022-12-05T01:29:12;3.40;99.90
21906;DHT22;11117;48.644;9.006;2022-12-05T01:31:38;3.40;99.90
21906;DHT22;11117;48.644;9.006;2022-12-05T01:34:06;3.50;99.90
21906;DHT22;11117;48.644;9.006;2022-12-05T01:36:32;3.50;99.90
21906;DHT22;11117;48.644;9.006;2022-12-05T01:38:58;3.50;99.90
21906;DHT22;11117;48.644;9.006;2022-12-05T01:41:27;3.40;99.90
21906;DHT22;11117;48.644;9.006;2022-12-05T01:46:50;3.30;99.90
21906;DHT22;11117;48.644;9.006;2022-12-05T01:49:19;3.40;99.90
21906;DHT22;11117;48.644;9.006;2022-12-05T01:51:48;3.50;99.90
21906;DHT22;11117;48.644;9.006;2022-12-05T01:54:15;3.50;99.90
21906;DHT22;11117;48.644;9.006;2022-12-05T01:56:45;3.40;99.90
21906;DHT22;11117;48.644;9.006;2022-12-05T01:59:12;3.50;99.90
21906;DHT22;11117;48.644;9.006;2022-12-05T02:01:38;3.60;99.90
21906;DHT22;11117;48.644;9.006;2022-12-05T02:04:05;3.60;99.90
21906;DHT22;11117;48.644;9.006;2022-12-05T02:06:31;3.50;99.90
21906;DHT22;11117;48.644;9.006;2022-12-05T02:08:57;3.60;99.90
21906;DHT22;11117;48.644;9.006;2022-12-05T02:11:24;3.60;99.90
21906;DHT22;11117;48.644;9.006;2022-12-05T02:14:14;3.50;99.90
21906;DHT22;11117;48.644;9.006;2022-12-05T02:25:38;3.50;99.90
21906;DHT22;11117;48.644;9.006;2022-12-05T02:31:17;3.40;99.90
21906;DHT22;11117;48.644;9.006;2022-12-05T02:36:52;3.50;99.90
21906;DHT22;11117;48.644;9.006;2022-12-05T02:42:34;3.60;99.90
21906;DHT22;11117;48.644;9.006;2022-12-05T02:45:04;3.60;99.90
21906;DHT22;11117;48.644;9.006;2022-12-05T02:47:38;3.70;99.90
21906;DHT22;11117;48.644;9.006;2022-12-05T02:50:08;3.70;99.90
21906;DHT22;11117;48.644;9.006;2022-12-05T02:52:35;3.60;99.90
21906;DHT22;11117;48.644;9.006;2022-12-05T02:55:02;3.60;99.90
21906;DHT22;11117;48.644;9.006;2022-12-05T02:57:28;3.70;99.90
21906;DHT22;11117;48.644;9.006;2022-12-05T02:59:54;3.70;99.90
21906;DHT22;11117;48.644;9.006;2022-12-05T03:02:26;3.70;99.90
21906;DHT22;11117;48.644;9.006;2022-12-05T03:04:53;3.70;99.90
21906;DHT22;11117;48.644;9.006;2022-12-05T03:07:21;3.70;99.90
21906;DHT22;11117;48.644;9.006;2022-12-05T03:09:58;3.70;99.90
21906;DHT22;11117;48.644;9.006;2022-12-05T03:12:32;3.50;99.90
21906;DHT22;11117;48.644;9.006;2022-12-05T03:15:12;3.50;99.90
21906;DHT22;11117;48.644;9.006;2022-12-05T03:17:58;3.60;99.90
21906;DHT22;11117;48.644;9.006;2022-12-05T03:20:32;3.70;99.90
21906;DHT22;11117;48.644;9.006;2022-12-05T03:23:04;3.60;99.90
21906;DHT22;11117;48.644;9.006;2022-12-05T03:28:40;3.50;99.90
21906;DHT22;11117;48.644;9.006;2022-12-05T03:31:12;3.50;99.90
21906;DHT22;11117;48.644;9.006;2022-12-05T03:33:44;3.60;99.90
21906;DHT22;11117;48.644;9.006;2022-12-05T03:36:17;3.70;99.90
21906;DHT22;11117;48.644;9.006;2022-12-05T03:39:10;3.80;99.90
21906;DHT22;11117;48.644;9.006;2022-12-05T03:41:50;3.80;99.90
21906;DHT22;11117;48.644;9.006;2022-12-05T03:44:22;3.90;99.90
21906;DHT22;11117;48.644;9.006;2022-12-05T03:46:55;3.90;99.90
21906;DHT22;11117;48.644;9.006;2022-12-05T03:49:29;4.00;99.90
21906;DHT22;11117;48.644;9.006;2022-12-05T03:52:19;4.00;99.90
21906;DHT22;11117;48.644;9.006;2022-12-05T03:54:54;4.10;99.90
21906;DHT22;11117;48.644;9.006;2022-12-05T03:57:32;4.10;99.90
21906;DHT22;11117;48.644;9.006;2022-12-05T04:00:06;4.10;99.90
21906;DHT22;11117;48.644;9.006;2022-12-05T04:05:09;4.10;99.90
21906;DHT22;11117;48.644;9.006;2022-12-05T04:07:38;4.10;99.90
21906;DHT22;11117;48.644;9.006;2022-12-05T04:10:09;4.00;99.90
21906;DHT22;11117;48.644;9.006;2022-12-05T04:12:39;4.10;99.90
21906;DHT22;11117;48.644;9.006;2022-12-05T04:15:12;4.10;99.90
21906;DHT22;11117;48.644;9.006;2022-12-05T04:17:59;4.00;99.90
21906;DHT22;11117;48.644;9.006;2022-12-05T04:20:39;4.00;99.90
21906;DHT22;11117;48.644;9.006;2022-12-05T04:23:07;4.00;99.90
21906;DHT22;11117;48.644;9.006;2022-12-05T04:25:46;4.00;99.90
21906;DHT22;11117;48.644;9.006;2022-12-05T04:28:31;3.90;99.90
21906;DHT22;11117;48.644;9.006;2022-12-05T04:31:10;3.90;99.90
21906;DHT22;11117;48.644;9.006;2022-12-05T04:33:44;3.90;99.90
21906;DHT22;11117;48.644;9.006;2022-12-05T04:36:12;3.80;99.90
21906;DHT22;11117;48.644;9.006;2022-12-05T04:39:03;3.70;99.90
21906;DHT22;11117;48.644;9.006;2022-12-05T04:41:35;3.70;99.90
21906;DHT22;11117;48.644;9.006;2022-12-05T04:44:06;3.80;99.90
21906;DHT22;11117;48.644;9.006;2022-12-05T04:46:34;3.70;99.90
21906;DHT22;11117;48.644;9.006;2022-12-05T04:49:01;3.70;99.90
21906;DHT22;11117;48.644;9.006;2022-12-05T04:51:30;3.70;99.90
21906;DHT22;11117;48.644;9.006;2022-12-05T04:54:10;3.70;99.90
21906;DHT22;11117;48.644;9.006;2022-12-05T04:56:39;3.60;99.90
21906;DHT22;11117;48.644;9.006;2022-12-05T04:59:07;3.60;99.90
21906;DHT22;11117;48.644;9.006;2022-12-05T05:01:40;3.60;99.90
21906;DHT22;11117;48.644;9.006;2022-12-05T05:04:20;3.60;99.90
21906;DHT22;11117;48.644;9.006;2022-12-05T05:06:46;3.60;99.90
21906;DHT22;11117;48.644;9.006;2022-12-05T05:09:12;3.60;99.90
21906;DHT22;11117;48.644;9.006;2022-12-05T05:11:37;3.60;99.90
21906;DHT22;11117;48.644;9.006;2022-12-05T05:14:04;3.70;99.90
21906;DHT22;11117;48.644;9.006;2022-12-05T05:16:33;3.70;99.90
21906;DHT22;11117;48.644;9.006;2022-12-05T05:18:59;3.60;99.90
21906;DHT22;11117;48.644;9.006;2022-12-05T05:21:28;3.70;99.90
21906;DHT22;11117;48.644;9.006;2022-12-05T05:23:55;3.70;99.90
21906;DHT22;11117;48.644;9.006;2022-12-05T05:26:22;3.80;99.90
21906;DHT22;11117;48.644;9.006;2022-12-05T05:28:48;3.80;99.90
21906;DHT22;11117;48.644;9.006;2022-12-05T05:31:15;3.80;99.90
21906;DHT22;11117;48.644;9.006;2022-12-05T05:33:41;3.80;99.90
21906;DHT22;11117;48.644;9.006;2022-12-05T05:36:11;3.70;99.90
21906;DHT22;11117;48.644;9.006;2022-12-05T05:38:39;3.70;99.90
21906;DHT22;11117;48.644;9.006;2022-12-05T05:41:05;3.50;99.90
21906;DHT22;11117;48.644;9.006;2022-12-05T05:43:35;3.60;99.90
21906;DHT22;11117;48.644;9.006;2022-12-05T05:46:02;3.70;99.90
21906;DHT22;11117;48.644;9.006;2022-12-05T05:48:28;3.70;99.90
21906;DHT22;11117;48.644;9.006;2022-12-05T05:50:53;3.70;99.90
21906;DHT22;11117;48.644;9.006;2022-12-05T05:53:19;3.60;99.90
21906;DHT22;11117;48.644;9.006;2022-12-05T05:55:45;3.40;99.90
21906;DHT22;11117;48.644;9.006;2022-12-05T05:58:10;3.20;99.90
21906;DHT22;11117;48.644;9.006;2022-12-05T06:00:36;3.10;99.90
21906;DHT22;11117;48.644;9.006;2022-12-05T06:03:01;3.00;99.90
21906;DHT22;11117;48.644;9.006;2022-12-05T06:05:30;3.00;99.90
21906;DHT22;11117;48.644;9.006;2022-12-05T06:07:55;3.10;99.90
21906;DHT22;11117;48.644;9.006;2022-12-05T06:10:21;3.10;99.90
21906;DHT22;11117;48.644;9.006;2022-12-05T06:12:47;3.10;99.90
21906;DHT22;11117;48.644;9.006;2022-12-05T06:15:13;3.20;99.90
21906;DHT22;11117;48.644;9.006;2022-12-05T06:17:39;3.40;99.90
21906;DHT22;11117;48.644;9.006;2022-12-05T06:20:06;3.40;99.90
21906;DHT22;11117;48.644;9.006;2022-12-05T06:22:32;3.50;99.90
21906;DHT22;11117;48.644;9.006;2022-12-05T06:24:57;3.60;99.90
21906;DHT22;11117;48.644;9.006;2022-12-05T06:27:23;3.70;99.90
21906;DHT22;11117;48.644;9.006;2022-12-05T06:29:49;3.60;99.90
21906;DHT22;11117;48.644;9.006;2022-12-05T06:32:14;3.70;99.90
21906;DHT22;11117;48.644;9.006;2022-12-05T06:34:40;3.70;99.90
21906;DHT22;11117;48.644;9.006;2022-12-05T06:37:06;3.80;99.90
21906;DHT22;11117;48.644;9.006;2022-12-05T06:39:31;3.80;99.90
21906;DHT22;11117;48.644;9.006;2022-12-05T06:41:57;3.90;99.90
21906;DHT22;11117;48.644;9.006;2022-12-05T06:44:22;4.00;99.90
21906;DHT22;11117;48.644;9.006;2022-12-05T06:46:48;4.00;99.90
21906;DHT22;11117;48.644;9.006;2022-12-05T06:49:14;4.10;99.90
21906;DHT22;11117;48.644;9.006;2022-12-05T06:51:39;4.10;99.90
21906;DHT22;11117;48.644;9.006;2022-12-05T06:54:05;4.20;99.90
21906;DHT22;11117;48.644;9.006;2022-12-05T06:56:31;4.10;99.90
21906;DHT22;11117;48.644;9.006;2022-12-05T06:58:57;4.00;99.90
21906;DHT22;11117;48.644;9.006;2022-12-05T07:01:23;3.90;99.90
21906;DHT22;11117;48.644;9.006;2022-12-05T07:03:49;3.70;99.90
21906;DHT22;11117;48.644;9.006;2022-12-05T07:06:15;3.70;99.90
21906;DHT22;11117;48.644;9.006;2022-12-05T07:08:41;3.70;99.90
21906;DHT22;11117;48.644;9.006;2022-12-05T07:11:10;3.90;99.90
21906;DHT22;11117;48.644;9.006;2022-12-05T07:13:38;4.20;99.90
21906;DHT22;11117;48.644;9.006;2022-12-05T07:16:05;4.30;99.90
21906;DHT22;11117;48.644;9.006;2022-12-05T07:18:30;4.30;99.90
21906;DHT22;11117;48.644;9.006;2022-12-05T07:20:57;4.40;99.90
21906;DHT22;11117;48.644;9.006;2022-12-05T07:23:23;4.40;99.90
21906;DHT22;11117;48.644;9.006;2022-12-05T07:25:49;4.30;99.90
21906;DHT22;11117;48.644;9.006;2022-12-05T07:28:14;4.30;99.90
21906;DHT22;11117;48.644;9.006;2022-12-05T07:30:40;4.50;99.90
21906;DHT22;11117;48.644;9.006;2022-12-05T07:33:06;4.60;99.90
21906;DHT22;11117;48.644;9.006;2022-12-05T07:35:31;4.60;99.90
21906;DHT22;11117;48.644;9.006;2022-12-05T07:37:57;4.70;99.90
21906;DHT22;11117;48.644;9.006;2022-12-05T07:40:23;4.80;99.90
21906;DHT22;11117;48.644;9.006;2022-12-05T07:42:48;4.80;99.90
21906;DHT22;11117;48.644;9.006;2022-12-05T07:45:14;4.90;99.90
21906;DHT22;11117;48.644;9.006;2022-12-05T07:47:40;4.90;99.90
21906;DHT22;11117;48.644;9.006;2022-12-05T07:50:06;5.00;99.90
21906;DHT22;11117;48.644;9.006;2022-12-05T07:52:33;4.90;99.90
21906;DHT22;11117;48.644;9.006;2022-12-05T07:54:58;4.90;99.90
21906;DHT22;11117;48.644;9.006;2022-12-05T07:57:28;4.90;99.90
21906;DHT22;11117;48.644;9.006;2022-12-05T07:59:54;4.90;99.90
21906;DHT22;11117;48.644;9.006;2022-12-05T08:02:19;5.10;99.90
21906;DHT22;11117;48.644;9.006;2022-12-05T08:04:45;5.10;99.90
21906;DHT22;11117;48.644;9.006;2022-12-05T08:07:10;5.10;99.90
21906;DHT22;11117;48.644;9.006;2022-12-05T08:09:36;5.20;99.90
21906;DHT22;11117;48.644;9.006;2022-12-05T08:12:02;5.20;99.90
21906;DHT22;11117;48.644;9.006;2022-12-05T08:14:27;5.20;99.90
21906;DHT22;11117;48.644;9.006;2022-12-05T08:16:53;5.10;99.90
21906;DHT22;11117;48.644;9.006;2022-12-05T08:19:18;5.00;99.90
21906;DHT22;11117;48.644;9.006;2022-12-05T08:21:44;5.10;99.90
21906;DHT22;11117;48.644;9.006;2022-12-05T08:24:10;5.00;99.90
21906;DHT22;11117;48.644;9.006;2022-12-05T08:26:37;5.00;99.90
21906;DHT22;11117;48.644;9.006;2022-12-05T08:29:07;5.10;99.90
21906;DHT22;11117;48.644;9.006;2022-12-05T08:31:35;5.20;99.90
21906;DHT22;11117;48.644;9.006;2022-12-05T08:34:06;5.20;99.90
21906;DHT22;11117;48.644;9.006;2022-12-05T08:36:32;5.20;99.90
21906;DHT22;11117;48.644;9.006;2022-12-05T08:39:03;5.20;99.90
21906;DHT22;11117;48.644;9.006;2022-12-05T08:41:29;5.30;99.90
21906;DHT22;11117;48.644;9.006;2022-12-05T08:44:01;5.40;99.90
21906;DHT22;11117;48.644;9.006;2022-12-05T08:46:29;5.50;99.90
21906;DHT22;11117;48.644;9.006;2022-12-05T08:48:54;5.70;99.90
21906;DHT22;11117;48.644;9.006;2022-12-05T08:51:20;5.70;99.90
21906;DHT22;11117;48.644;9.006;2022-12-05T08:53:46;5.80;99.90
21906;DHT22;11117;48.644;9.006;2022-12-05T08:56:13;5.80;99.90
21906;DHT22;11117;48.644;9.006;2022-12-05T08:58:39;5.80;99.90
21906;DHT22;11117;48.644;9.006;2022-12-05T09:01:10;5.90;99.90
21906;DHT22;11117;48.644;9.006;2022-12-05T09:03:36;6.00;99.90
21906;DHT22;11117;48.644;9.006;2022-12-05T09:08:36;6.40;99.90
21906;DHT22;11117;48.644;9.006;2022-12-05T09:11:10;6.50;99.90
21906;DHT22;11117;48.644;9.006;2022-12-05T09:13:36;6.50;99.90
21906;DHT22;11117;48.644;9.006;2022-12-05T09:16:10;6.70;99.90
21906;DHT22;11117;48.644;9.006;2022-12-05T09:18:36;6.80;99.90
21906;DHT22;11117;48.644;9.006;2022-12-05T09:23:31;6.80;99.90
21906;DHT22;11117;48.644;9.006;2022-12-05T09:25:57;6.90;99.90
21906;DHT22;11117;48.644;9.006;2022-12-05T09:28:23;6.90;99.90
21906;DHT22;11117;48.644;9.006;2022-12-05T09:30:58;6.90;99.90
21906;DHT22;11117;48.644;9.006;2022-12-05T09:33:24;7.00;99.90
21906;DHT22;11117;48.644;9.006;2022-12-05T09:35:50;6.70;99.90
21906;DHT22;11117;48.644;9.006;2022-12-05T09:38:16;6.70;99.90
21906;DHT22;11117;48.644;9.006;2022-12-05T09:40:41;6.60;99.90
21906;DHT22;11117;48.644;9.006;2022-12-05T09:43:12;6.60;99.90
21906;DHT22;11117;48.644;9.006;2022-12-05T09:45:49;6.50;99.90
21906;DHT22;11117;48.644;9.006;2022-12-05T09:48:20;6.50;99.90
21906;DHT22;11117;48.644;9.006;2022-12-05T09:50:58;6.50;99.90
21906;DHT22;11117;48.644;9.006;2022-12-05T09:56:03;6.50;99.90
21906;DHT22;11117;48.644;9.006;2022-12-05T10:06:55;6.30;99.90
21906;DHT22;11117;48.644;9.006;2022-12-05T10:12:37;6.50;99.90
21906;DHT22;11117;48.644;9.006;2022-12-05T10:17:45;6.50;99.90
21906;DHT22;11117;48.644;9.006;2022-12-05T10:20:16;6.50;99.90
21906;DHT22;11117;48.644;9.006;2022-12-05T10:22:53;6.40;99.90
21906;DHT22;11117;48.644;9.006;2022-12-05T10:25:20;6.50;99.90
21906;DHT22;11117;48.644;9.006;2022-12-05T10:27:58;6.70;99.90
21906;DHT22;11117;48.644;9.006;2022-12-05T10:30:31;6.90;99.90
21906;DHT22;11117;48.644;9.006;2022-12-05T10:32:59;7.00;99.90
21906;DHT22;11117;48.644;9.006;2022-12-05T10:35:36;6.90;99.90
21906;DHT22;11117;48.644;9.006;2022-12-05T10:40:42;6.80;99.90
21906;DHT22;11117;48.644;9.006;2022-12-05T10:43:12;6.90;99.90
21906;DHT22;11117;48.644;9.006;2022-12-05T10:45:43;7.10;99.90
21906;DHT22;11117;48.644;9.006;2022-12-05T10:48:15;7.30;99.90
21906;DHT22;11117;48.644;9.006;2022-12-05T10:50:43;7.10;99.90
21906;DHT22;11117;48.644;9.006;2022-12-05T10:53:15;7.10;99.90
21906;DHT22;11117;48.644;9.006;2022-12-05T10:55:43;7.20;99.90
21906;DHT22;11117;48.644;9.006;2022-12-05T10:58:15;7.30;99.90
21906;DHT22;11117;48.644;9.006;2022-12-05T11:00:45;7.30;99.90
21906;DHT22;11117;48.644;9.006;2022-12-05T11:03:33;7.40;99.90
21906;DHT22;11117;48.644;9.006;2022-12-05T11:06:13;7.40;99.90
21906;DHT22;11117;48.644;9.006;2022-12-05T11:08:39;7.30;99.90
21906;DHT22;11117;48.644;9.006;2022-12-05T11:11:26;7.40;99.90
21906;DHT22;11117;48.644;9.006;2022-12-05T11:14:23;7.50;99.90
21906;DHT22;11117;48.644;9.006;2022-12-05T11:16:55;7.60;99.90
21906;DHT22;11117;48.644;9.006;2022-12-05T11:21:47;7.80;99.90
21906;DHT22;11117;48.644;9.006;2022-12-05T11:24:26;7.40;99.90
21906;DHT22;11117;48.644;9.006;2022-12-05T11:26:53;7.30;99.90
21906;DHT22;11117;48.644;9.006;2022-12-05T11:29:36;7.30;99.90
21906;DHT22;11117;48.644;9.006;2022-12-05T11:32:04;7.30;99.90
21906;DHT22;11117;48.644;9.006;2022-12-05T11:34:49;7.50;99.90
21906;DHT22;11117;48.644;9.006;2022-12-05T11:37:25;7.60;99.90
21906;DHT22;11117;48.644;9.006;2022-12-05T11:39:53;7.80;99.90
21906;DHT22;11117;48.644;9.006;2022-12-05T11:45:31;8.30;99.90
21906;DHT22;11117;48.644;9.006;2022-12-05T11:48:14;8.40;99.90
21906;DHT22;11117;48.644;9.006;2022-12-05T11:50:59;8.50;99.90
21906;DHT22;11117;48.644;9.006;2022-12-05T12:02:06;8.20;99.90
21906;DHT22;11117;48.644;9.006;2022-12-05T12:04:46;8.30;99.90
21906;DHT22;11117;48.644;9.006;2022-12-05T12:07:45;8.40;99.90
21906;DHT22;11117;48.644;9.006;2022-12-05T12:19:08;8.90;99.90
21906;DHT22;11117;48.644;9.006;2022-12-05T12:24:34;9.20;99.90
21906;DHT22;11117;48.644;9.006;2022-12-05T12:36:40;8.70;99.90
21906;DHT22;11117;48.644;9.006;2022-12-05T12:46:58;8.80;99.90
21906;DHT22;11117;48.644;9.006;2022-12-05T12:52:23;8.80;99.90
21906;DHT22;11117;48.644;9.006;2022-12-05T13:03:47;8.90;99.90
21906;DHT22;11117;48.644;9.006;2022-12-05T13:09:14;8.60;99.90
21906;DHT22;11117;48.644;9.006;2022-12-05T13:11:43;8.60;99.90
21906;DHT22;11117;48.644;9.006;2022-12-05T13:14:12;8.40;99.90
21906;DHT22;11117;48.644;9.006;2022-12-05T13:16:45;8.20;99.90
21906;DHT22;11117;48.644;9.006;2022-12-05T13:19:31;8.30;99.90
21906;DHT22;11117;48.644;9.006;2022-12-05T13:22:00;8.00;99.90
21906;DHT22;11117;48.644;9.006;2022-12-05T13:24:27;8.00;99.90
21906;DHT22;11117;48.644;9.006;2022-12-05T13:27:00;8.10;99.90
21906;DHT22;11117;48.644;9.006;2022-12-05T13:29:38;8.00;99.90
21906;DHT22;11117;48.644;9.006;2022-12-05T13:32:05;7.90;99.90
21906;DHT22;11117;48.644;9.006;2022-12-05T13:37:00;7.80;99.90
21906;DHT22;11117;48.644;9.006;2022-12-05T13:39:33;7.50;99.90
21906;DHT22;11117;48.644;9.006;2022-12-05T13:41:59;7.60;99.90
21906;DHT22;11117;48.644;9.006;2022-12-05T13:44:37;7.20;99.90
21906;DHT22;11117;48.644;9.006;2022-12-05T13:47:05;7.20;99.90
21906;DHT22;11117;48.644;9.006;2022-12-05T13:49:51;7.00;99.90
21906;DHT22;11117;48.644;9.006;2022-12-05T13:52:27;6.80;99.90
21906;DHT22;11117;48.644;9.006;2022-12-05T13:54:59;6.70;99.90
21906;DHT22;11117;48.644;9.006;2022-12-05T14:07:52;6.40;99.90
21906;DHT22;11117;48.644;9.006;2022-12-05T14:13:02;6.30;99.90
21906;DHT22;11117;48.644;9.006;2022-12-05T14:15:44;6.30;99.90
21906;DHT22;11117;48.644;9.006;2022-12-05T14:21:13;6.20;99.90
21906;DHT22;11117;48.644;9.006;2022-12-05T14:26:43;6.00;99.90
21906;DHT22;11117;48.644;9.006;2022-12-05T14:32:59;6.00;99.90
21906;DHT22;11117;48.644;9.006;2022-12-05T14:35:16;5.90;99.90
21906;DHT22;11117;48.644;9.006;2022-12-05T14:40:39;5.90;99.90
21906;DHT22;11117;48.644;9.006;2022-12-05T14:43:30;5.90;99.90
21906;DHT22;11117;48.644;9.006;2022-12-05T14:46:03;5.80;99.90
21906;DHT22;11117;48.644;9.006;2022-12-05T14:50:56;5.80;99.90
21906;DHT22;11117;48.644;9.006;2022-12-05T14:53:35;5.80;99.90
21906;DHT22;11117;48.644;9.006;2022-12-05T14:56:15;5.80;99.90
21906;DHT22;11117;48.644;9.006;2022-12-05T14:58:58;5.60;99.90
21906;DHT22;11117;48.644;9.006;2022-12-05T15:01:42;5.60;99.90
21906;DHT22;11117;48.644;9.006;2022-12-05T15:06:48;5.30;99.90
21906;DHT22;11117;48.644;9.006;2022-12-05T15:09:41;5.20;99.90
21906;DHT22;11117;48.644;9.006;2022-12-05T15:12:27;5.20;99.90
21906;DHT22;11117;48.644;9.006;2022-12-05T15:15:03;5.20;99.90
21906;DHT22;11117;48.644;9.006;2022-12-05T15:17:37;5.10;99.90
21906;DHT22;11117;48.644;9.006;2022-12-05T15:20:36;5.00;99.90
21906;DHT22;11117;48.644;9.006;2022-12-05T15:23:02;5.00;99.90
21906;DHT22;11117;48.644;9.006;2022-12-05T15:25:31;4.90;99.90
21906;DHT22;11117;48.644;9.006;2022-12-05T15:28:04;4.80;99.90
21906;DHT22;11117;48.644;9.006;2022-12-05T15:30:32;4.70;99.90
21906;DHT22;11117;48.644;9.006;2022-12-05T15:33:00;4.70;99.90
21906;DHT22;11117;48.644;9.006;2022-12-05T15:35:29;4.70;99.90
21906;DHT22;11117;48.644;9.006;2022-12-05T15:38:03;4.80;99.90
21906;DHT22;11117;48.644;9.006;2022-12-05T15:40:34;4.80;99.90
21906;DHT22;11117;48.644;9.006;2022-12-05T15:43:00;4.90;99.90
21906;DHT22;11117;48.644;9.006;2022-12-05T15:45:30;4.90;99.90
21906;DHT22;11117;48.644;9.006;2022-12-05T15:48:10;4.90;99.90
21906;DHT22;11117;48.644;9.006;2022-12-05T15:50:38;4.90;99.90
21906;DHT22;11117;48.644;9.006;2022-12-05T15:53:18;4.90;99.90
21906;DHT22;11117;48.644;9.006;2022-12-05T15:55:52;5.00;99.90
21906;DHT22;11117;48.644;9.006;2022-12-05T16:03:54;5.10;99.90
21906;DHT22;11117;48.644;9.006;2022-12-05T16:06:25;5.20;99.90
21906;DHT22;11117;48.644;9.006;2022-12-05T16:08:51;5.30;99.90
21906;DHT22;11117;48.644;9.006;2022-12-05T16:11:17;5.40;99.90
21906;DHT22;11117;48.644;9.006;2022-12-05T16:13:45;5.50;99.90
21906;DHT22;11117;48.644;9.006;2022-12-05T16:16:18;5.60;99.90
21906;DHT22;11117;48.644;9.006;2022-12-05T16:18:52;5.70;99.90
21906;DHT22;11117;48.644;9.006;2022-12-05T16:21:38;5.70;99.90
21906;DHT22;11117;48.644;9.006;2022-12-05T16:24:14;5.80;99.90
21906;DHT22;11117;48.644;9.006;2022-12-05T16:26:41;5.80;99.90
21906;DHT22;11117;48.644;9.006;2022-12-05T16:29:25;5.90;99.90
21906;DHT22;11117;48.644;9.006;2022-12-05T16:31:57;5.90;99.90
21906;DHT22;11117;48.644;9.006;2022-12-05T16:34:24;5.80;99.90
21906;DHT22;11117;48.644;9.006;2022-12-05T16:36:52;5.90;99.90
21906;DHT22;11117;48.644;9.006;2022-12-05T16:39:19;5.90;99.90
21906;DHT22;11117;48.644;9.006;2022-12-05T16:41:45;5.90;99.90
21906;DHT22;11117;48.644;9.006;2022-12-05T16:46:52;5.90;99.90
21906;DHT22;11117;48.644;9.006;2022-12-05T16:52:13;6.00;99.90
21906;DHT22;11117;48.644;9.006;2022-12-05T16:54:40;6.00;99.90
21906;DHT22;11117;48.644;9.006;2022-12-05T16:57:05;6.00;99.90
21906;DHT22;11117;48.644;9.006;2022-12-05T16:59:35;6.10;99.90
21906;DHT22;11117;48.644;9.006;2022-12-05T17:02:03;6.00;99.90
21906;DHT22;11117;48.644;9.006;2022-12-05T17:04:29;6.00;99.90
21906;DHT22;11117;48.644;9.006;2022-12-05T17:06:54;6.00;99.90
21906;DHT22;11117;48.644;9.006;2022-12-05T17:09:20;6.00;99.90
21906;DHT22;11117;48.644;9.006;2022-12-05T17:11:47;5.70;99.90
21906;DHT22;11117;48.644;9.006;2022-12-05T17:14:15;5.60;99.90
21906;DHT22;11117;48.644;9.006;2022-12-05T17:16:42;5.60;99.90
21906;DHT22;11117;48.644;9.006;2022-12-05T17:19:11;5.60;99.90
21906;DHT22;11117;48.644;9.006;2022-12-05T17:21:37;5.60;99.90
21906;DHT22;11117;48.644;9.006;2022-12-05T17:24:04;5.60;99.90
21906;DHT22;11117;48.644;9.006;2022-12-05T17:26:30;5.40;99.90
21906;DHT22;11117;48.644;9.006;2022-12-05T17:28:59;5.30;99.90
21906;DHT22;11117;48.644;9.006;2022-12-05T17:31:24;5.30;99.90
21906;DHT22;11117;48.644;9.006;2022-12-05T17:33:52;5.30;99.90
21906;DHT22;11117;48.644;9.006;2022-12-05T17:36:18;5.40;99.90
21906;DHT22;11117;48.644;9.006;2022-12-05T17:38:43;5.50;99.90
21906;DHT22;11117;48.644;9.006;2022-12-05T17:41:17;5.40;99.90
21906;DHT22;11117;48.644;9.006;2022-12-05T17:43:44;5.40;99.90
21906;DHT22;11117;48.644;9.006;2022-12-05T17:46:18;5.40;99.90
21906;DHT22;11117;48.644;9.006;2022-12-05T17:48:44;5.50;99.90
21906;DHT22;11117;48.644;9.006;2022-12-05T17:51:10;5.60;99.90
21906;DHT22;11117;48.644;9.006;2022-12-05T17:53:36;5.60;99.90
21906;DHT22;11117;48.644;9.006;2022-12-05T17:56:02;5.60;99.90
21906;DHT22;11117;48.644;9.006;2022-12-05T17:58:28;5.60;99.90
21906;DHT22;11117;48.644;9.006;2022-12-05T18:00:53;5.60;99.90
21906;DHT22;11117;48.644;9.006;2022-12-05T18:03:19;5.60;99.90
21906;DHT22;11117;48.644;9.006;2022-12-05T18:05:45;5.50;99.90
21906;DHT22;11117;48.644;9.006;2022-12-05T18:08:11;5.50;99.90
21906;DHT22;11117;48.644;9.006;2022-12-05T18:10:41;5.60;99.90
21906;DHT22;11117;48.644;9.006;2022-12-05T18:13:10;5.50;99.90
21906;DHT22;11117;48.644;9.006;2022-12-05T18:15:36;5.50;99.90
21906;DHT22;11117;48.644;9.006;2022-12-05T18:18:01;5.40;99.90
21906;DHT22;11117;48.644;9.006;2022-12-05T18:20:27;5.50;99.90
21906;DHT22;11117;48.644;9.006;2022-12-05T18:22:53;5.50;99.90
21906;DHT22;11117;48.644;9.006;2022-12-05T18:25:19;5.60;99.90
21906;DHT22;11117;48.644;9.006;2022-12-05T18:27:44;5.60;99.90
21906;DHT22;11117;48.644;9.006;2022-12-05T18:30:10;5.60;99.90
21906;DHT22;11117;48.644;9.006;2022-12-05T18:32:36;5.60;99.90
21906;DHT22;11117;48.644;9.006;2022-12-05T18:35:01;5.60;99.90
21906;DHT22;11117;48.644;9.006;2022-12-05T18:37:27;5.60;99.90